Terminal Aerodrome Forecast
Issued by NWS North Platte, NE

Home | Current Version | Previous Version | Graphics & Text | Print | Product List | Glossary Off
Versions: 1 2 3 4 5 6 7 8 9 10 11 12 13

000
FTUS43 KLBF 282326
TAFVTN
TAF
KVTN 282326Z 2900/2924 30006KT P6SM SCT250
     FM290100 10006KT P6SM VCTS SCT060CB BKN120
     FM290300 VRB05KT P6SM SCT050 BKN100 BKN250
     FM291400 02006KT P6SM BKN150=

USA.gov is the U.S. government's official web portal to all federal, state and local government web resources and services.